sensor_id;sensor_type;location;lat;lon;timestamp;pressure;altitude;pressure_sealevel;temperature;humidity
61682;BME280;47577;43.610;25.010;2023-05-03T00:01:33;100961.38;;;11.22;54.30
61682;BME280;47577;43.610;25.010;2023-05-03T00:03:58;100963.34;;;11.15;56.62
61682;BME280;47577;43.610;25.010;2023-05-03T00:06:24;100958.94;;;11.14;56.49
61682;BME280;47577;43.610;25.010;2023-05-03T00:08:50;100960.19;;;11.01;57.25
61682;BME280;47577;43.610;25.010;2023-05-03T00:11:16;100953.59;;;10.81;57.35
61682;BME280;47577;43.610;25.010;2023-05-03T00:13:42;100948.66;;;10.66;59.90
61682;BME280;47577;43.610;25.010;2023-05-03T00:16:07;100945.25;;;10.60;59.07
61682;BME280;47577;43.610;25.010;2023-05-03T00:18:33;100937.53;;;10.51;59.34
61682;BME280;47577;43.610;25.010;2023-05-03T00:20:59;100934.06;;;10.46;60.70
61682;BME280;47577;43.610;25.010;2023-05-03T00:23:25;100933.66;;;10.27;59.75
61682;BME280;47577;43.610;25.010;2023-05-03T00:25:53;100936.66;;;10.12;59.75
61682;BME280;47577;43.610;25.010;2023-05-03T00:28:20;100937.09;;;9.93;58.65
61682;BME280;47577;43.610;25.010;2023-05-03T00:30:46;100931.84;;;9.90;60.54
61682;BME280;47577;43.610;25.010;2023-05-03T00:33:12;100934.34;;;9.98;63.93
61682;BME280;47577;43.610;25.010;2023-05-03T00:35:37;100927.47;;;9.87;61.83
61682;BME280;47577;43.610;25.010;2023-05-03T00:38:03;100934.72;;;9.79;62.49
61682;BME280;47577;43.610;25.010;2023-05-03T00:40:29;100935.16;;;9.59;63.09
61682;BME280;47577;43.610;25.010;2023-05-03T00:42:54;100922.13;;;9.47;63.00
61682;BME280;47577;43.610;25.010;2023-05-03T00:45:20;100924.72;;;9.51;63.88
61682;BME280;47577;43.610;25.010;2023-05-03T00:47:46;100927.28;;;9.55;63.63
61682;BME280;47577;43.610;25.010;2023-05-03T00:50:11;100936.50;;;9.38;63.97
61682;BME280;47577;43.610;25.010;2023-05-03T00:52:38;100930.97;;;9.47;63.41
61682;BME280;47577;43.610;25.010;2023-05-03T00:55:05;100927.97;;;9.64;63.29
61682;BME280;47577;43.610;25.010;2023-05-03T00:57:31;100920.75;;;9.71;63.57
61682;BME280;47577;43.610;25.010;2023-05-03T00:59:57;100927.66;;;9.78;63.70
61682;BME280;47577;43.610;25.010;2023-05-03T01:02:26;100914.34;;;9.80;65.45
61682;BME280;47577;43.610;25.010;2023-05-03T01:04:54;100903.66;;;9.83;63.94
61682;BME280;47577;43.610;25.010;2023-05-03T01:10:16;100893.25;;;9.74;62.71
61682;BME280;47577;43.610;25.010;2023-05-03T01:12:55;100890.34;;;9.84;59.71
61682;BME280;47577;43.610;25.010;2023-05-03T01:17:58;100894.28;;;10.43;55.62
61682;BME280;47577;43.610;25.010;2023-05-03T01:20:31;100897.16;;;10.70;54.32
61682;BME280;47577;43.610;25.010;2023-05-03T01:25:25;100889.56;;;11.20;51.35
61682;BME280;47577;43.610;25.010;2023-05-03T01:27:54;100890.56;;;11.47;50.63
61682;BME280;47577;43.610;25.010;2023-05-03T01:30:22;100886.59;;;11.61;49.78
61682;BME280;47577;43.610;25.010;2023-05-03T01:35:51;100895.94;;;11.74;49.67
61682;BME280;47577;43.610;25.010;2023-05-03T01:38:19;100890.00;;;11.96;50.15
61682;BME280;47577;43.610;25.010;2023-05-03T01:40:48;100888.63;;;12.11;49.87
61682;BME280;47577;43.610;25.010;2023-05-03T01:43:15;100877.09;;;12.10;50.29
61682;BME280;47577;43.610;25.010;2023-05-03T01:45:41;100874.44;;;12.10;49.72
61682;BME280;47577;43.610;25.010;2023-05-03T01:48:15;100892.78;;;12.19;49.16
61682;BME280;47577;43.610;25.010;2023-05-03T01:50:42;100892.38;;;12.32;49.70
61682;BME280;47577;43.610;25.010;2023-05-03T01:53:07;100886.78;;;12.13;51.96
61682;BME280;47577;43.610;25.010;2023-05-03T01:55:33;100874.34;;;12.13;50.84
61682;BME280;47577;43.610;25.010;2023-05-03T01:57:59;100874.81;;;11.98;51.00
61682;BME280;47577;43.610;25.010;2023-05-03T02:00:24;100874.44;;;12.10;49.17
61682;BME280;47577;43.610;25.010;2023-05-03T02:02:50;100864.84;;;12.04;49.97
61682;BME280;47577;43.610;25.010;2023-05-03T02:05:16;100878.78;;;12.13;48.94
61682;BME280;47577;43.610;25.010;2023-05-03T02:07:42;100869.41;;;12.01;48.28
61682;BME280;47577;43.610;25.010;2023-05-03T02:10:08;100874.13;;;11.91;49.55
61682;BME280;47577;43.610;25.010;2023-05-03T02:12:42;100876.00;;;12.16;47.56
61682;BME280;47577;43.610;25.010;2023-05-03T02:15:09;100875.78;;;12.23;47.79
61682;BME280;47577;43.610;25.010;2023-05-03T02:17:35;100874.19;;;12.44;47.56
61682;BME280;47577;43.610;25.010;2023-05-03T02:20:02;100883.09;;;12.43;48.34
61682;BME280;47577;43.610;25.010;2023-05-03T02:22:31;100881.63;;;12.60;47.57
61682;BME280;47577;43.610;25.010;2023-05-03T02:24:57;100880.88;;;12.56;47.09
61682;BME280;47577;43.610;25.010;2023-05-03T02:27:26;100880.72;;;12.61;47.91
61682;BME280;47577;43.610;25.010;2023-05-03T02:29:52;100878.91;;;12.61;48.33
61682;BME280;47577;43.610;25.010;2023-05-03T02:32:17;100887.16;;;12.55;48.85
61682;BME280;47577;43.610;25.010;2023-05-03T02:34:45;100890.53;;;12.60;50.47
61682;BME280;47577;43.610;25.010;2023-05-03T02:37:11;100889.53;;;12.63;52.85
61682;BME280;47577;43.610;25.010;2023-05-03T02:39:37;100892.50;;;12.55;54.29
61682;BME280;47577;43.610;25.010;2023-05-03T02:42:04;100902.47;;;12.49;56.24
61682;BME280;47577;43.610;25.010;2023-05-03T02:44:29;100888.19;;;12.24;57.19
61682;BME280;47577;43.610;25.010;2023-05-03T02:46:55;100890.22;;;12.16;58.38
61682;BME280;47577;43.610;25.010;2023-05-03T02:49:21;100889.00;;;11.98;58.11
61682;BME280;47577;43.610;25.010;2023-05-03T02:51:47;100878.97;;;11.78;58.65
61682;BME280;47577;43.610;25.010;2023-05-03T02:54:13;100897.84;;;11.70;60.41
61682;BME280;47577;43.610;25.010;2023-05-03T02:56:38;100883.41;;;11.48;60.63
61682;BME280;47577;43.610;25.010;2023-05-03T02:59:04;100869.22;;;11.18;61.86
61682;BME280;47577;43.610;25.010;2023-05-03T03:01:32;100883.63;;;11.10;60.04
61682;BME280;47577;43.610;25.010;2023-05-03T03:03:58;100880.56;;;10.93;61.78
61682;BME280;47577;43.610;25.010;2023-05-03T03:06:26;100887.19;;;10.78;63.47
61682;BME280;47577;43.610;25.010;2023-05-03T03:08:52;100889.16;;;10.70;64.53
61682;BME280;47577;43.610;25.010;2023-05-03T03:11:18;100888.50;;;10.61;64.93
61682;BME280;47577;43.610;25.010;2023-05-03T03:13:43;100880.97;;;10.43;61.83
61682;BME280;47577;43.610;25.010;2023-05-03T03:16:09;100879.47;;;10.31;65.89
61682;BME280;47577;43.610;25.010;2023-05-03T03:18:35;100888.44;;;9.89;65.14
61682;BME280;47577;43.610;25.010;2023-05-03T03:21:01;100883.53;;;9.73;64.36
61682;BME280;47577;43.610;25.010;2023-05-03T03:23:27;100878.59;;;9.96;67.28
61682;BME280;47577;43.610;25.010;2023-05-03T03:25:53;100887.31;;;10.01;68.89
61682;BME280;47577;43.610;25.010;2023-05-03T03:28:19;100881.06;;;10.02;67.42
61682;BME280;47577;43.610;25.010;2023-05-03T03:30:45;100871.53;;;9.94;68.58
61682;BME280;47577;43.610;25.010;2023-05-03T03:33:10;100891.91;;;9.95;69.13
61682;BME280;47577;43.610;25.010;2023-05-03T03:35:36;100893.72;;;9.91;70.05
61682;BME280;47577;43.610;25.010;2023-05-03T03:38:03;100882.47;;;9.80;68.56
61682;BME280;47577;43.610;25.010;2023-05-03T03:40:28;100879.16;;;9.70;68.90
61682;BME280;47577;43.610;25.010;2023-05-03T03:42:54;100888.91;;;9.69;70.20
61682;BME280;47577;43.610;25.010;2023-05-03T03:45:20;100887.19;;;9.67;70.08
61682;BME280;47577;43.610;25.010;2023-05-03T03:47:45;100886.28;;;9.68;70.18
61682;BME280;47577;43.610;25.010;2023-05-03T03:50:11;100897.50;;;9.81;71.89
61682;BME280;47577;43.610;25.010;2023-05-03T03:52:37;100902.97;;;9.75;70.75
61682;BME280;47577;43.610;25.010;2023-05-03T03:55:03;100885.44;;;9.67;69.87
61682;BME280;47577;43.610;25.010;2023-05-03T03:57:28;100895.16;;;9.67;71.42
61682;BME280;47577;43.610;25.010;2023-05-03T03:59:56;100907.53;;;9.68;69.49
61682;BME280;47577;43.610;25.010;2023-05-03T04:02:22;100890.00;;;9.61;72.22
61682;BME280;47577;43.610;25.010;2023-05-03T04:04:49;100892.56;;;9.65;70.42
61682;BME280;47577;43.610;25.010;2023-05-03T04:07:14;100888.13;;;9.66;71.81
61682;BME280;47577;43.610;25.010;2023-05-03T04:09:40;100903.88;;;9.74;71.24
61682;BME280;47577;43.610;25.010;2023-05-03T04:12:06;100923.34;;;9.74;70.71
61682;BME280;47577;43.610;25.010;2023-05-03T04:14:32;100912.06;;;9.63;71.06
61682;BME280;47577;43.610;25.010;2023-05-03T04:16:58;100917.31;;;9.66;69.78
61682;BME280;47577;43.610;25.010;2023-05-03T04:19:23;100915.34;;;9.76;70.91
61682;BME280;47577;43.610;25.010;2023-05-03T04:21:52;100924.56;;;9.98;69.68
61682;BME280;47577;43.610;25.010;2023-05-03T04:24:18;100927.19;;;10.00;70.32
61682;BME280;47577;43.610;25.010;2023-05-03T04:26:44;100935.94;;;10.05;69.12
61682;BME280;47577;43.610;25.010;2023-05-03T04:29:10;100948.09;;;10.14;70.36
61682;BME280;47577;43.610;25.010;2023-05-03T04:31:38;100939.09;;;10.21;71.72
61682;BME280;47577;43.610;25.010;2023-05-03T04:34:04;100938.09;;;10.25;70.94
61682;BME280;47577;43.610;25.010;2023-05-03T04:36:30;100941.34;;;10.39;71.62
61682;BME280;47577;43.610;25.010;2023-05-03T04:38:56;100945.69;;;10.43;69.79
61682;BME280;47577;43.610;25.010;2023-05-03T04:41:22;100943.38;;;10.64;68.12
61682;BME280;47577;43.610;25.010;2023-05-03T04:43:49;100939.59;;;10.74;67.68
61682;BME280;47577;43.610;25.010;2023-05-03T04:46:15;100944.44;;;10.91;68.25
61682;BME280;47577;43.610;25.010;2023-05-03T04:48:41;100945.00;;;11.04;65.49
61682;BME280;47577;43.610;25.010;2023-05-03T04:51:07;100943.81;;;11.16;64.49
61682;BME280;47577;43.610;25.010;2023-05-03T04:53:33;100947.91;;;11.28;64.76
61682;BME280;47577;43.610;25.010;2023-05-03T04:55:58;100942.41;;;11.34;65.25
61682;BME280;47577;43.610;25.010;2023-05-03T04:58:24;100942.22;;;11.40;64.79
61682;BME280;47577;43.610;25.010;2023-05-03T05:00:50;100957.06;;;11.49;64.99
61682;BME280;47577;43.610;25.010;2023-05-03T05:03:16;100967.50;;;11.57;63.62
61682;BME280;47577;43.610;25.010;2023-05-03T05:05:41;100971.78;;;11.62;63.61
61682;BME280;47577;43.610;25.010;2023-05-03T05:08:07;100962.88;;;11.63;63.06
61682;BME280;47577;43.610;25.010;2023-05-03T05:10:42;100970.50;;;11.76;63.53
61682;BME280;47577;43.610;25.010;2023-05-03T05:13:07;100974.88;;;11.78;63.51
61682;BME280;47577;43.610;25.010;2023-05-03T05:15:33;100970.19;;;11.86;63.92
61682;BME280;47577;43.610;25.010;2023-05-03T05:17:58;100958.38;;;11.95;63.77
61682;BME280;47577;43.610;25.010;2023-05-03T05:20:25;100960.69;;;12.07;64.94
61682;BME280;47577;43.610;25.010;2023-05-03T05:22:50;100971.16;;;12.14;64.71
61682;BME280;47577;43.610;25.010;2023-05-03T05:25:16;100967.19;;;12.27;63.46
61682;BME280;47577;43.610;25.010;2023-05-03T05:27:42;100981.19;;;12.34;62.97
61682;BME280;47577;43.610;25.010;2023-05-03T05:30:07;100978.09;;;12.48;63.95
61682;BME280;47577;43.610;25.010;2023-05-03T05:32:33;100978.63;;;12.59;64.03
61682;BME280;47577;43.610;25.010;2023-05-03T05:34:59;100974.53;;;12.47;62.44
61682;BME280;47577;43.610;25.010;2023-05-03T05:37:25;100988.75;;;12.48;64.14
61682;BME280;47577;43.610;25.010;2023-05-03T05:39:52;100988.72;;;12.49;63.63
61682;BME280;47577;43.610;25.010;2023-05-03T05:42:18;100984.75;;;12.61;63.98
61682;BME280;47577;43.610;25.010;2023-05-03T05:44:44;100978.22;;;12.70;63.72
61682;BME280;47577;43.610;25.010;2023-05-03T05:47:10;100978.09;;;12.74;63.95
61682;BME280;47577;43.610;25.010;2023-05-03T05:49:36;100979.84;;;12.75;63.60
61682;BME280;47577;43.610;25.010;2023-05-03T05:52:05;100983.06;;;12.85;63.38
61682;BME280;47577;43.610;25.010;2023-05-03T05:54:30;100980.84;;;12.98;63.54
61682;BME280;47577;43.610;25.010;2023-05-03T05:56:56;100990.31;;;13.07;64.93
61682;BME280;47577;43.610;25.010;2023-05-03T05:59:22;100984.63;;;13.17;63.43
61682;BME280;47577;43.610;25.010;2023-05-03T06:01:48;100979.97;;;13.23;62.92
61682;BME280;47577;43.610;25.010;2023-05-03T06:04:14;100984.78;;;13.40;63.26
61682;BME280;47577;43.610;25.010;2023-05-03T06:06:40;100996.75;;;13.53;63.96
61682;BME280;47577;43.610;25.010;2023-05-03T06:09:06;100985.59;;;13.65;63.10
61682;BME280;47577;43.610;25.010;2023-05-03T06:11:33;100982.34;;;13.81;63.01
61682;BME280;47577;43.610;25.010;2023-05-03T06:14:00;100968.81;;;13.85;62.16
61682;BME280;47577;43.610;25.010;2023-05-03T06:16:28;100981.78;;;13.96;62.68
61682;BME280;47577;43.610;25.010;2023-05-03T06:18:54;100978.31;;;13.93;62.23
61682;BME280;47577;43.610;25.010;2023-05-03T06:21:20;100981.63;;;13.99;63.79
61682;BME280;47577;43.610;25.010;2023-05-03T06:23:46;100986.50;;;14.12;60.26
61682;BME280;47577;43.610;25.010;2023-05-03T06:26:11;100996.75;;;14.24;59.94
61682;BME280;47577;43.610;25.010;2023-05-03T06:28:37;100996.16;;;14.38;62.23
61682;BME280;47577;43.610;25.010;2023-05-03T06:31:02;100989.84;;;14.40;60.54
61682;BME280;47577;43.610;25.010;2023-05-03T06:33:28;100985.91;;;14.49;61.82
61682;BME280;47577;43.610;25.010;2023-05-03T06:35:54;100987.34;;;14.58;60.88
61682;BME280;47577;43.610;25.010;2023-05-03T06:38:20;100989.72;;;14.66;61.74
61682;BME280;47577;43.610;25.010;2023-05-03T06:40:47;100992.81;;;14.77;59.89
61682;BME280;47577;43.610;25.010;2023-05-03T06:43:13;100997.91;;;14.83;60.45
61682;BME280;47577;43.610;25.010;2023-05-03T06:45:40;100984.53;;;14.83;59.97
61682;BME280;47577;43.610;25.010;2023-05-03T06:48:06;100993.66;;;14.79;61.08
61682;BME280;47577;43.610;25.010;2023-05-03T06:50:33;101003.28;;;14.83;60.99
61682;BME280;47577;43.610;25.010;2023-05-03T06:52:58;100991.59;;;14.86;60.30
61682;BME280;47577;43.610;25.010;2023-05-03T06:55:24;100999.66;;;15.05;60.49
61682;BME280;47577;43.610;25.010;2023-05-03T06:57:53;101001.91;;;15.15;60.52
61682;BME280;47577;43.610;25.010;2023-05-03T07:00:19;101013.94;;;15.26;59.97
61682;BME280;47577;43.610;25.010;2023-05-03T07:02:46;101017.31;;;15.31;59.99
61682;BME280;47577;43.610;25.010;2023-05-03T07:05:11;101016.28;;;15.33;59.62
61682;BME280;47577;43.610;25.010;2023-05-03T07:07:37;101023.75;;;15.47;59.52
61682;BME280;47577;43.610;25.010;2023-05-03T07:10:03;101023.94;;;15.43;59.32
61682;BME280;47577;43.610;25.010;2023-05-03T07:12:29;101024.94;;;15.40;59.13
61682;BME280;47577;43.610;25.010;2023-05-03T07:14:54;101019.16;;;15.49;60.20
61682;BME280;47577;43.610;25.010;2023-05-03T07:17:20;101013.94;;;15.46;59.60
61682;BME280;47577;43.610;25.010;2023-05-03T07:19:46;101019.69;;;15.58;59.07
61682;BME280;47577;43.610;25.010;2023-05-03T07:22:13;101029.44;;;15.60;59.52
61682;BME280;47577;43.610;25.010;2023-05-03T07:24:39;101026.53;;;15.65;58.81
61682;BME280;47577;43.610;25.010;2023-05-03T07:27:04;101031.59;;;15.71;58.95
61682;BME280;47577;43.610;25.010;2023-05-03T07:29:33;101029.06;;;15.88;59.14
61682;BME280;47577;43.610;25.010;2023-05-03T07:32:00;101030.22;;;16.02;59.70
61682;BME280;47577;43.610;25.010;2023-05-03T07:34:25;101030.09;;;16.05;60.25
61682;BME280;47577;43.610;25.010;2023-05-03T07:36:51;101024.88;;;16.21;58.40
61682;BME280;47577;43.610;25.010;2023-05-03T07:39:18;101034.53;;;16.25;58.80
61682;BME280;47577;43.610;25.010;2023-05-03T07:41:43;101036.50;;;16.21;58.01
61682;BME280;47577;43.610;25.010;2023-05-03T07:44:09;101036.03;;;16.31;58.77
61682;BME280;47577;43.610;25.010;2023-05-03T07:46:35;101032.06;;;16.39;58.93
61682;BME280;47577;43.610;25.010;2023-05-03T07:49:01;101032.47;;;16.49;58.26
61682;BME280;47577;43.610;25.010;2023-05-03T07:51:28;101037.16;;;16.63;55.92
61682;BME280;47577;43.610;25.010;2023-05-03T07:53:54;101034.41;;;16.64;56.97
61682;BME280;47577;43.610;25.010;2023-05-03T07:56:21;101033.97;;;16.74;56.74
61682;BME280;47577;43.610;25.010;2023-05-03T07:58:47;101032.75;;;16.79;57.13
61682;BME280;47577;43.610;25.010;2023-05-03T08:01:12;101008.59;;;16.79;56.48
61682;BME280;47577;43.610;25.010;2023-05-03T08:03:38;101016.25;;;16.89;55.86
61682;BME280;47577;43.610;25.010;2023-05-03T08:06:04;101034.34;;;17.03;56.10
61682;BME280;47577;43.610;25.010;2023-05-03T08:08:30;101036.63;;;17.10;54.80
61682;BME280;47577;43.610;25.010;2023-05-03T08:10:56;101050.00;;;16.94;56.22
61682;BME280;47577;43.610;25.010;2023-05-03T08:13:22;101024.38;;;16.87;55.73
61682;BME280;47577;43.610;25.010;2023-05-03T08:15:48;101050.22;;;16.90;56.42
61682;BME280;47577;43.610;25.010;2023-05-03T08:18:15;101036.28;;;16.81;55.57
61682;BME280;47577;43.610;25.010;2023-05-03T08:20:42;101039.47;;;16.90;55.74
61682;BME280;47577;43.610;25.010;2023-05-03T08:23:08;101051.34;;;17.03;56.30
61682;BME280;47577;43.610;25.010;2023-05-03T08:25:33;101038.50;;;16.91;56.13
61682;BME280;47577;43.610;25.010;2023-05-03T08:28:01;101056.28;;;16.93;56.57
61682;BME280;47577;43.610;25.010;2023-05-03T08:30:27;101033.72;;;16.78;55.44
61682;BME280;47577;43.610;25.010;2023-05-03T08:32:52;101037.00;;;16.85;56.45
61682;BME280;47577;43.610;25.010;2023-05-03T08:35:18;101028.03;;;16.86;56.80
61682;BME280;47577;43.610;25.010;2023-05-03T08:37:44;101024.31;;;16.70;57.64
61682;BME280;47577;43.610;25.010;2023-05-03T08:40:10;101010.31;;;16.63;56.18
61682;BME280;47577;43.610;25.010;2023-05-03T08:42:44;100971.88;;;16.62;57.76
61682;BME280;47577;43.610;25.010;2023-05-03T08:45:13;100996.53;;;16.71;58.37
61682;BME280;47577;43.610;25.010;2023-05-03T08:47:40;100980.94;;;16.60;59.27
61682;BME280;47577;43.610;25.010;2023-05-03T08:50:10;100992.91;;;16.72;59.38
61682;BME280;47577;43.610;25.010;2023-05-03T08:52:38;100980.72;;;16.64;59.30
61682;BME280;47577;43.610;25.010;2023-05-03T08:55:04;100980.09;;;16.77;60.10
61682;BME280;47577;43.610;25.010;2023-05-03T08:57:32;100974.50;;;16.81;58.76
61682;BME280;47577;43.610;25.010;2023-05-03T09:00:00;100955.78;;;16.80;59.11
61682;BME280;47577;43.610;25.010;2023-05-03T09:02:26;100935.78;;;16.68;58.36
61682;BME280;47577;43.610;25.010;2023-05-03T09:04:53;100923.56;;;16.62;58.07
61682;BME280;47577;43.610;25.010;2023-05-03T09:07:19;100945.88;;;16.63;58.30
61682;BME280;47577;43.610;25.010;2023-05-03T09:09:45;100952.53;;;16.56;59.60
61682;BME280;47577;43.610;25.010;2023-05-03T09:12:11;100951.16;;;16.47;60.10
61682;BME280;47577;43.610;25.010;2023-05-03T09:14:41;100938.91;;;16.41;60.14
61682;BME280;47577;43.610;25.010;2023-05-03T09:17:16;100927.56;;;16.36;60.97
61682;BME280;47577;43.610;25.010;2023-05-03T09:19:51;100927.56;;;16.36;61.32
61682;BME280;47577;43.610;25.010;2023-05-03T09:22:18;100940.81;;;16.39;60.00
61682;BME280;47577;43.610;25.010;2023-05-03T09:24:51;100985.09;;;16.48;59.75
61682;BME280;47577;43.610;25.010;2023-05-03T09:27:18;101005.25;;;16.57;58.60
61682;BME280;47577;43.610;25.010;2023-05-03T09:29:46;101016.88;;;16.57;59.44
61682;BME280;47577;43.610;25.010;2023-05-03T09:32:12;101013.38;;;16.55;59.33
61682;BME280;47577;43.610;25.010;2023-05-03T09:34:38;101015.69;;;16.63;58.95
61682;BME280;47577;43.610;25.010;2023-05-03T09:37:04;101009.63;;;16.77;59.18
61682;BME280;47577;43.610;25.010;2023-05-03T09:39:31;101012.53;;;16.91;58.99
61682;BME280;47577;43.610;25.010;2023-05-03T09:41:57;100998.56;;;16.66;58.48
61682;BME280;47577;43.610;25.010;2023-05-03T09:47:13;100991.84;;;16.74;58.60
61682;BME280;47577;43.610;25.010;2023-05-03T09:49:39;100983.56;;;16.79;59.23
61682;BME280;47577;43.610;25.010;2023-05-03T09:52:06;100982.91;;;16.93;59.11
61682;BME280;47577;43.610;25.010;2023-05-03T09:54:32;100980.56;;;17.04;57.24
61682;BME280;47577;43.610;25.010;2023-05-03T09:57:03;100973.97;;;17.10;59.32
61682;BME280;47577;43.610;25.010;2023-05-03T09:59:34;100974.06;;;17.08;58.72
61682;BME280;47577;43.610;25.010;2023-05-03T10:02:02;100980.59;;;17.20;58.80
61682;BME280;47577;43.610;25.010;2023-05-03T10:04:37;100985.50;;;17.29;58.04
61682;BME280;47577;43.610;25.010;2023-05-03T10:07:07;100986.34;;;17.47;57.51
61682;BME280;47577;43.610;25.010;2023-05-03T10:09:45;100976.78;;;17.42;56.60
61682;BME280;47577;43.610;25.010;2023-05-03T10:12:12;100966.94;;;17.58;55.92
61682;BME280;47577;43.610;25.010;2023-05-03T10:14:42;100952.50;;;17.77;55.07
61682;BME280;47577;43.610;25.010;2023-05-03T10:17:15;100945.22;;;17.79;55.56
61682;BME280;47577;43.610;25.010;2023-05-03T10:19:55;100929.59;;;17.85;53.99
61682;BME280;47577;43.610;25.010;2023-05-03T10:22:22;100932.84;;;18.08;50.67
61682;BME280;47577;43.610;25.010;2023-05-03T10:30:39;100918.28;;;19.77;48.80
61682;BME280;47577;43.610;25.010;2023-05-03T10:35:39;100921.41;;;20.39;46.17
61682;BME280;47577;43.610;25.010;2023-05-03T10:38:21;100912.81;;;20.60;44.52
61682;BME280;47577;43.610;25.010;2023-05-03T10:40:48;100902.47;;;20.67;44.49
61682;BME280;47577;43.610;25.010;2023-05-03T10:46:01;100885.88;;;21.11;43.60
61682;BME280;47577;43.610;25.010;2023-05-03T10:48:28;100882.75;;;21.43;43.06
61682;BME280;47577;43.610;25.010;2023-05-03T10:50:55;100888.34;;;21.66;44.00
61682;BME280;47577;43.610;25.010;2023-05-03T10:56:07;100891.16;;;21.77;38.87
61682;BME280;47577;43.610;25.010;2023-05-03T10:58:47;100897.53;;;21.76;37.99
61682;BME280;47577;43.610;25.010;2023-05-03T11:01:14;100898.34;;;21.89;39.32
61682;BME280;47577;43.610;25.010;2023-05-03T11:06:34;100899.75;;;22.32;37.17
61682;BME280;47577;43.610;25.010;2023-05-03T11:09:03;100901.28;;;22.48;36.58
61682;BME280;47577;43.610;25.010;2023-05-03T11:11:30;100888.84;;;22.56;36.53
61682;BME280;47577;43.610;25.010;2023-05-03T11:13:56;100880.41;;;22.72;36.63
61682;BME280;47577;43.610;25.010;2023-05-03T11:16:22;100874.03;;;22.73;35.30
61682;BME280;47577;43.610;25.010;2023-05-03T11:18:48;100884.91;;;22.96;34.69
61682;BME280;47577;43.610;25.010;2023-05-03T11:21:15;100873.47;;;22.92;36.16
61682;BME280;47577;43.610;25.010;2023-05-03T11:23:43;100869.94;;;23.14;34.83
61682;BME280;47577;43.610;25.010;2023-05-03T11:26:09;100879.06;;;23.13;36.19
61682;BME280;47577;43.610;25.010;2023-05-03T11:28:39;100873.00;;;23.21;35.44
61682;BME280;47577;43.610;25.010;2023-05-03T11:31:07;100886.34;;;23.35;34.28
61682;BME280;47577;43.610;25.010;2023-05-03T11:33:33;100875.59;;;23.34;34.82
61682;BME280;47577;43.610;25.010;2023-05-03T11:36:01;100869.69;;;23.51;34.60
61682;BME280;47577;43.610;25.010;2023-05-03T11:38:33;100864.13;;;23.64;32.91
61682;BME280;47577;43.610;25.010;2023-05-03T11:40:59;100857.09;;;23.73;33.34
61682;BME280;47577;43.610;25.010;2023-05-03T11:43:26;100866.09;;;23.73;32.77
61682;BME280;47577;43.610;25.010;2023-05-03T11:45:53;100863.75;;;23.80;31.99
61682;BME280;47577;43.610;25.010;2023-05-03T11:48:20;100850.41;;;23.77;32.13
61682;BME280;47577;43.610;25.010;2023-05-03T11:50:50;100860.06;;;23.70;32.19
61682;BME280;47577;43.610;25.010;2023-05-03T11:53:18;100856.19;;;23.95;32.22
61682;BME280;47577;43.610;25.010;2023-05-03T11:55:46;100849.25;;;24.14;31.14
61682;BME280;47577;43.610;25.010;2023-05-03T12:00:45;100834.06;;;24.11;31.52
61682;BME280;47577;43.610;25.010;2023-05-03T12:03:22;100850.56;;;24.19;31.98
61682;BME280;47577;43.610;25.010;2023-05-03T12:05:49;100849.72;;;24.19;31.97
61682;BME280;47577;43.610;25.010;2023-05-03T12:08:16;100846.16;;;24.39;31.84
61682;BME280;47577;43.610;25.010;2023-05-03T12:10:43;100854.97;;;24.64;31.95
61682;BME280;47577;43.610;25.010;2023-05-03T12:13:09;100858.69;;;24.63;30.75
61682;BME280;47577;43.610;25.010;2023-05-03T12:15:38;100833.63;;;24.59;32.00
61682;BME280;47577;43.610;25.010;2023-05-03T12:18:10;100838.47;;;24.56;31.50
61682;BME280;47577;43.610;25.010;2023-05-03T12:20:37;100845.22;;;24.82;31.96
61682;BME280;47577;43.610;25.010;2023-05-03T12:23:05;100844.31;;;24.72;32.83
61682;BME280;47577;43.610;25.010;2023-05-03T12:25:33;100830.19;;;24.78;32.08
61682;BME280;47577;43.610;25.010;2023-05-03T12:28:03;100814.25;;;24.74;31.82
61682;BME280;47577;43.610;25.010;2023-05-03T12:30:29;100827.84;;;24.95;33.88
61682;BME280;47577;43.610;25.010;2023-05-03T12:32:55;100795.75;;;24.68;33.17
61682;BME280;47577;43.610;25.010;2023-05-03T12:35:21;100815.06;;;24.64;32.09
61682;BME280;47577;43.610;25.010;2023-05-03T12:37:48;100806.75;;;24.66;32.17
61682;BME280;47577;43.610;25.010;2023-05-03T12:40:14;100810.78;;;24.72;31.20
61682;BME280;47577;43.610;25.010;2023-05-03T12:42:41;100809.88;;;24.61;32.17
61682;BME280;47577;43.610;25.010;2023-05-03T12:45:07;100803.50;;;24.51;32.92
61682;BME280;47577;43.610;25.010;2023-05-03T12:47:34;100802.44;;;24.63;33.01
61682;BME280;47577;43.610;25.010;2023-05-03T12:50:02;100791.63;;;24.73;32.80
61682;BME280;47577;43.610;25.010;2023-05-03T12:52:28;100790.84;;;24.82;31.50
61682;BME280;47577;43.610;25.010;2023-05-03T12:54:56;100771.31;;;24.98;32.42
61682;BME280;47577;43.610;25.010;2023-05-03T12:57:22;100766.44;;;25.02;32.98
61682;BME280;47577;43.610;25.010;2023-05-03T12:59:47;100776.88;;;25.28;32.74
61682;BME280;47577;43.610;25.010;2023-05-03T13:02:20;100768.47;;;25.41;32.77
61682;BME280;47577;43.610;25.010;2023-05-03T13:04:47;100755.47;;;25.64;32.57
61682;BME280;47577;43.610;25.010;2023-05-03T13:07:24;100757.75;;;25.59;29.77
61682;BME280;47577;43.610;25.010;2023-05-03T13:09:53;100732.25;;;25.40;30.81
61682;BME280;47577;43.610;25.010;2023-05-03T13:12:19;100748.56;;;25.40;31.27